sensor_id;sensor_type;location;lat;lon;timestamp;temperature;humidity
65985;HTU21D;52748;51.112;5.880;2024-01-16T00:01:52;15.63;67.78
65985;HTU21D;52748;51.112;5.880;2024-01-16T00:04:18;15.62;67.76
65985;HTU21D;52748;51.112;5.880;2024-01-16T00:06:44;15.63;67.72
65985;HTU21D;52748;51.112;5.880;2024-01-16T00:09:09;15.62;67.64
65985;HTU21D;52748;51.112;5.880;2024-01-16T00:11:42;15.61;67.59
65985;HTU21D;52748;51.112;5.880;2024-01-16T00:14:09;15.62;67.46
65985;HTU21D;52748;51.112;5.880;2024-01-16T00:16:47;15.61;67.41
65985;HTU21D;52748;51.112;5.880;2024-01-16T00:19:14;15.62;67.32
65985;HTU21D;52748;51.112;5.880;2024-01-16T00:21:44;15.60;67.27
65985;HTU21D;52748;51.112;5.880;2024-01-16T00:24:16;15.61;67.20
65985;HTU21D;52748;51.112;5.880;2024-01-16T00:26:43;15.61;67.13
65985;HTU21D;52748;51.112;5.880;2024-01-16T00:29:08;15.60;67.09
65985;HTU21D;52748;51.112;5.880;2024-01-16T00:31:35;15.61;67.11
65985;HTU21D;52748;51.112;5.880;2024-01-16T00:34:01;15.60;67.18
65985;HTU21D;52748;51.112;5.880;2024-01-16T00:36:27;15.60;67.09
65985;HTU21D;52748;51.112;5.880;2024-01-16T00:38:52;15.58;67.17
65985;HTU21D;52748;51.112;5.880;2024-01-16T00:41:18;15.58;67.20
65985;HTU21D;52748;51.112;5.880;2024-01-16T00:43:44;15.57;67.05
65985;HTU21D;52748;51.112;5.880;2024-01-16T00:46:10;15.58;66.88
65985;HTU21D;52748;51.112;5.880;2024-01-16T00:48:36;15.58;66.99
65985;HTU21D;52748;51.112;5.880;2024-01-16T00:51:02;15.57;66.95
65985;HTU21D;52748;51.112;5.880;2024-01-16T00:53:28;15.57;66.88
65985;HTU21D;52748;51.112;5.880;2024-01-16T00:55:54;15.57;66.78
65985;HTU21D;52748;51.112;5.880;2024-01-16T00:58:21;15.58;66.63
65985;HTU21D;52748;51.112;5.880;2024-01-16T01:00:47;15.56;66.65
65985;HTU21D;52748;51.112;5.880;2024-01-16T01:03:13;15.58;66.59
65985;HTU21D;52748;51.112;5.880;2024-01-16T01:05:39;15.57;66.64
65985;HTU21D;52748;51.112;5.880;2024-01-16T01:08:05;15.58;66.57
65985;HTU21D;52748;51.112;5.880;2024-01-16T01:10:31;15.57;66.49
65985;HTU21D;52748;51.112;5.880;2024-01-16T01:12:57;15.56;66.56
65985;HTU21D;52748;51.112;5.880;2024-01-16T01:15:23;15.56;66.53
65985;HTU21D;52748;51.112;5.880;2024-01-16T01:17:49;15.55;66.49
65985;HTU21D;52748;51.112;5.880;2024-01-16T01:20:17;15.55;66.43
65985;HTU21D;52748;51.112;5.880;2024-01-16T01:22:44;15.55;66.33
65985;HTU21D;52748;51.112;5.880;2024-01-16T01:25:11;15.55;66.35
65985;HTU21D;52748;51.112;5.880;2024-01-16T01:27:37;15.54;66.37
65985;HTU21D;52748;51.112;5.880;2024-01-16T01:30:04;15.53;66.38
65985;HTU21D;52748;51.112;5.880;2024-01-16T01:32:30;15.54;66.25
65985;HTU21D;52748;51.112;5.880;2024-01-16T01:34:56;15.55;66.17
65985;HTU21D;52748;51.112;5.880;2024-01-16T01:37:21;15.54;66.10
65985;HTU21D;52748;51.112;5.880;2024-01-16T01:39:47;15.53;66.07
65985;HTU21D;52748;51.112;5.880;2024-01-16T01:42:15;15.54;65.99
65985;HTU21D;52748;51.112;5.880;2024-01-16T01:44:41;15.53;65.93
65985;HTU21D;52748;51.112;5.880;2024-01-16T01:47:08;15.52;65.92
65985;HTU21D;52748;51.112;5.880;2024-01-16T01:49:35;15.52;65.90
65985;HTU21D;52748;51.112;5.880;2024-01-16T01:52:02;15.52;65.88
65985;HTU21D;52748;51.112;5.880;2024-01-16T01:54:30;15.53;65.86
65985;HTU21D;52748;51.112;5.880;2024-01-16T01:56:58;15.52;65.84
65985;HTU21D;52748;51.112;5.880;2024-01-16T01:59:24;15.51;65.79
65985;HTU21D;52748;51.112;5.880;2024-01-16T02:01:52;15.51;65.78
65985;HTU21D;52748;51.112;5.880;2024-01-16T02:04:19;15.49;65.82
65985;HTU21D;52748;51.112;5.880;2024-01-16T02:06:45;15.51;65.82
65985;HTU21D;52748;51.112;5.880;2024-01-16T02:09:12;15.51;65.75
65985;HTU21D;52748;51.112;5.880;2024-01-16T02:11:41;15.51;65.70
65985;HTU21D;52748;51.112;5.880;2024-01-16T02:14:08;15.49;65.59
65985;HTU21D;52748;51.112;5.880;2024-01-16T02:16:40;15.49;65.59
65985;HTU21D;52748;51.112;5.880;2024-01-16T02:19:07;15.48;65.62
65985;HTU21D;52748;51.112;5.880;2024-01-16T02:21:46;15.49;65.63
65985;HTU21D;52748;51.112;5.880;2024-01-16T02:24:15;15.47;65.53
65985;HTU21D;52748;51.112;5.880;2024-01-16T02:26:42;15.48;65.47
65985;HTU21D;52748;51.112;5.880;2024-01-16T02:29:09;15.48;65.42
65985;HTU21D;52748;51.112;5.880;2024-01-16T02:31:35;15.47;65.43
65985;HTU21D;52748;51.112;5.880;2024-01-16T02:34:01;15.47;65.43
65985;HTU21D;52748;51.112;5.880;2024-01-16T02:36:30;15.47;65.40
65985;HTU21D;52748;51.112;5.880;2024-01-16T02:38:56;15.47;65.38
65985;HTU21D;52748;51.112;5.880;2024-01-16T02:41:22;15.47;65.37
65985;HTU21D;52748;51.112;5.880;2024-01-16T02:43:48;15.46;65.41
65985;HTU21D;52748;51.112;5.880;2024-01-16T02:46:14;15.47;65.37
65985;HTU21D;52748;51.112;5.880;2024-01-16T02:48:40;15.45;65.36
65985;HTU21D;52748;51.112;5.880;2024-01-16T02:51:08;15.45;65.31
65985;HTU21D;52748;51.112;5.880;2024-01-16T02:53:33;15.45;65.30
65985;HTU21D;52748;51.112;5.880;2024-01-16T02:55:59;15.45;65.24
65985;HTU21D;52748;51.112;5.880;2024-01-16T02:58:26;15.45;65.26
65985;HTU21D;52748;51.112;5.880;2024-01-16T03:00:52;15.46;65.24
65985;HTU21D;52748;51.112;5.880;2024-01-16T03:03:18;15.45;65.27
65985;HTU21D;52748;51.112;5.880;2024-01-16T03:05:44;15.44;65.26
65985;HTU21D;52748;51.112;5.880;2024-01-16T03:08:10;15.45;65.28
65985;HTU21D;52748;51.112;5.880;2024-01-16T03:10:36;15.43;65.29
65985;HTU21D;52748;51.112;5.880;2024-01-16T03:13:02;15.44;65.25
65985;HTU21D;52748;51.112;5.880;2024-01-16T03:15:28;15.43;65.30
65985;HTU21D;52748;51.112;5.880;2024-01-16T03:17:59;15.41;65.38
65985;HTU21D;52748;51.112;5.880;2024-01-16T03:20:27;15.41;65.36
65985;HTU21D;52748;51.112;5.880;2024-01-16T03:22:53;15.40;65.39
65985;HTU21D;52748;51.112;5.880;2024-01-16T03:25:19;15.39;65.40
65985;HTU21D;52748;51.112;5.880;2024-01-16T03:27:45;15.39;65.46
65985;HTU21D;52748;51.112;5.880;2024-01-16T03:30:11;15.38;65.46
65985;HTU21D;52748;51.112;5.880;2024-01-16T03:32:38;15.37;65.53
65985;HTU21D;52748;51.112;5.880;2024-01-16T03:35:05;15.36;65.50
65985;HTU21D;52748;51.112;5.880;2024-01-16T03:37:32;15.36;65.43
65985;HTU21D;52748;51.112;5.880;2024-01-16T03:39:57;15.36;65.46
65985;HTU21D;52748;51.112;5.880;2024-01-16T03:42:23;15.36;65.54
65985;HTU21D;52748;51.112;5.880;2024-01-16T03:44:49;15.34;65.42
65985;HTU21D;52748;51.112;5.880;2024-01-16T03:47:15;15.36;65.28
65985;HTU21D;52748;51.112;5.880;2024-01-16T03:49:41;15.38;65.18
65985;HTU21D;52748;51.112;5.880;2024-01-16T03:52:07;15.38;65.13
65985;HTU21D;52748;51.112;5.880;2024-01-16T03:54:33;15.38;65.04
65985;HTU21D;52748;51.112;5.880;2024-01-16T03:56:59;15.39;64.95
65985;HTU21D;52748;51.112;5.880;2024-01-16T03:59:24;15.38;64.98
65985;HTU21D;52748;51.112;5.880;2024-01-16T04:01:50;15.37;64.95
65985;HTU21D;52748;51.112;5.880;2024-01-16T04:04:16;15.39;64.88
65985;HTU21D;52748;51.112;5.880;2024-01-16T04:06:42;15.37;64.92
65985;HTU21D;52748;51.112;5.880;2024-01-16T04:09:09;15.37;64.91
65985;HTU21D;52748;51.112;5.880;2024-01-16T04:11:37;15.36;64.89
65985;HTU21D;52748;51.112;5.880;2024-01-16T04:14:04;15.37;64.92
65985;HTU21D;52748;51.112;5.880;2024-01-16T04:16:29;15.36;64.83
65985;HTU21D;52748;51.112;5.880;2024-01-16T04:18:55;15.34;64.82
65985;HTU21D;52748;51.112;5.880;2024-01-16T04:21:21;15.33;64.81
65985;HTU21D;52748;51.112;5.880;2024-01-16T04:23:47;15.34;64.70
65985;HTU21D;52748;51.112;5.880;2024-01-16T04:26:13;15.36;64.66
65985;HTU21D;52748;51.112;5.880;2024-01-16T04:28:38;15.36;64.55
65985;HTU21D;52748;51.112;5.880;2024-01-16T04:31:04;15.32;64.66
65985;HTU21D;52748;51.112;5.880;2024-01-16T04:33:30;15.33;64.63
65985;HTU21D;52748;51.112;5.880;2024-01-16T04:35:57;15.31;64.63
65985;HTU21D;52748;51.112;5.880;2024-01-16T04:38:23;15.32;64.56
65985;HTU21D;52748;51.112;5.880;2024-01-16T04:40:49;15.31;64.53
65985;HTU21D;52748;51.112;5.880;2024-01-16T04:43:15;15.31;64.53
65985;HTU21D;52748;51.112;5.880;2024-01-16T04:45:41;15.31;64.47
65985;HTU21D;52748;51.112;5.880;2024-01-16T04:48:07;15.31;64.45
65985;HTU21D;52748;51.112;5.880;2024-01-16T04:50:34;15.31;64.41
65985;HTU21D;52748;51.112;5.880;2024-01-16T04:53:01;15.29;64.41
65985;HTU21D;52748;51.112;5.880;2024-01-16T04:55:28;15.30;64.37
65985;HTU21D;52748;51.112;5.880;2024-01-16T04:57:57;15.29;64.39
65985;HTU21D;52748;51.112;5.880;2024-01-16T05:00:23;15.29;64.29
65985;HTU21D;52748;51.112;5.880;2024-01-16T05:02:49;15.28;64.30
65985;HTU21D;52748;51.112;5.880;2024-01-16T05:05:15;15.28;64.30
65985;HTU21D;52748;51.112;5.880;2024-01-16T05:07:41;15.29;64.17
65985;HTU21D;52748;51.112;5.880;2024-01-16T05:10:12;15.29;64.27
65985;HTU21D;52748;51.112;5.880;2024-01-16T05:12:41;15.28;64.30
65985;HTU21D;52748;51.112;5.880;2024-01-16T05:15:07;15.28;64.15
65985;HTU21D;52748;51.112;5.880;2024-01-16T05:17:34;15.26;64.18
65985;HTU21D;52748;51.112;5.880;2024-01-16T05:20:01;15.26;64.18
65985;HTU21D;52748;51.112;5.880;2024-01-16T05:22:29;15.26;64.13
65985;HTU21D;52748;51.112;5.880;2024-01-16T05:24:55;15.26;64.06
65985;HTU21D;52748;51.112;5.880;2024-01-16T05:27:20;15.25;64.09
65985;HTU21D;52748;51.112;5.880;2024-01-16T05:29:46;15.26;64.01
65985;HTU21D;52748;51.112;5.880;2024-01-16T05:32:13;15.25;64.12
65985;HTU21D;52748;51.112;5.880;2024-01-16T05:34:39;15.25;64.05
65985;HTU21D;52748;51.112;5.880;2024-01-16T05:37:05;15.25;64.00
65985;HTU21D;52748;51.112;5.880;2024-01-16T05:39:31;15.24;63.98
65985;HTU21D;52748;51.112;5.880;2024-01-16T05:41:57;15.24;63.89
65985;HTU21D;52748;51.112;5.880;2024-01-16T05:44:23;15.24;63.85
65985;HTU21D;52748;51.112;5.880;2024-01-16T05:46:49;15.23;63.76
65985;HTU21D;52748;51.112;5.880;2024-01-16T05:49:15;15.23;63.76
65985;HTU21D;52748;51.112;5.880;2024-01-16T05:51:40;15.22;63.77
65985;HTU21D;52748;51.112;5.880;2024-01-16T05:54:06;15.23;63.73
65985;HTU21D;52748;51.112;5.880;2024-01-16T05:56:32;15.23;63.54
65985;HTU21D;52748;51.112;5.880;2024-01-16T05:59:00;15.22;63.66
65985;HTU21D;52748;51.112;5.880;2024-01-16T06:01:25;15.21;63.67
65985;HTU21D;52748;51.112;5.880;2024-01-16T06:03:52;15.22;63.66
65985;HTU21D;52748;51.112;5.880;2024-01-16T06:06:18;15.22;64.43
65985;HTU21D;52748;51.112;5.880;2024-01-16T06:08:45;15.19;60.66
65985;HTU21D;52748;51.112;5.880;2024-01-16T06:11:11;15.21;60.19
65985;HTU21D;52748;51.112;5.880;2024-01-16T06:13:38;15.18;61.05
65985;HTU21D;52748;51.112;5.880;2024-01-16T06:16:06;15.19;61.53
65985;HTU21D;52748;51.112;5.880;2024-01-16T06:18:32;15.18;61.97
65985;HTU21D;52748;51.112;5.880;2024-01-16T06:20:57;15.17;62.56
65985;HTU21D;52748;51.112;5.880;2024-01-16T06:23:23;15.18;63.20
65985;HTU21D;52748;51.112;5.880;2024-01-16T06:25:49;15.17;63.69
65985;HTU21D;52748;51.112;5.880;2024-01-16T06:28:16;15.18;64.30
65985;HTU21D;52748;51.112;5.880;2024-01-16T06:30:41;15.18;64.54
65985;HTU21D;52748;51.112;5.880;2024-01-16T06:33:07;15.18;64.77
65985;HTU21D;52748;51.112;5.880;2024-01-16T06:35:33;15.18;65.15
65985;HTU21D;52748;51.112;5.880;2024-01-16T06:37:58;15.18;65.80
65985;HTU21D;52748;51.112;5.880;2024-01-16T06:40:24;15.18;66.89
65985;HTU21D;52748;51.112;5.880;2024-01-16T06:42:50;15.17;66.81
65985;HTU21D;52748;51.112;5.880;2024-01-16T06:45:16;15.17;66.74
65985;HTU21D;52748;51.112;5.880;2024-01-16T06:47:42;15.18;67.10
65985;HTU21D;52748;51.112;5.880;2024-01-16T06:50:08;15.18;67.02
65985;HTU21D;52748;51.112;5.880;2024-01-16T06:52:34;15.19;67.04
65985;HTU21D;52748;51.112;5.880;2024-01-16T06:55:00;15.21;66.92
65985;HTU21D;52748;51.112;5.880;2024-01-16T06:57:26;15.19;66.80
65985;HTU21D;52748;51.112;5.880;2024-01-16T06:59:53;15.19;66.69
65985;HTU21D;52748;51.112;5.880;2024-01-16T07:02:19;15.19;66.58
65985;HTU21D;52748;51.112;5.880;2024-01-16T07:04:45;15.18;64.46
65985;HTU21D;52748;51.112;5.880;2024-01-16T07:07:10;15.18;59.93
65985;HTU21D;52748;51.112;5.880;2024-01-16T07:09:36;15.18;58.57
65985;HTU21D;52748;51.112;5.880;2024-01-16T07:12:02;15.17;59.09
65985;HTU21D;52748;51.112;5.880;2024-01-16T07:14:29;15.18;60.05
65985;HTU21D;52748;51.112;5.880;2024-01-16T07:16:55;15.17;61.05
65985;HTU21D;52748;51.112;5.880;2024-01-16T07:19:20;15.17;61.94
65985;HTU21D;52748;51.112;5.880;2024-01-16T07:21:46;15.19;62.75
65985;HTU21D;52748;51.112;5.880;2024-01-16T07:24:12;15.19;63.38
65985;HTU21D;52748;51.112;5.880;2024-01-16T07:26:39;15.19;63.88
65985;HTU21D;52748;51.112;5.880;2024-01-16T07:29:07;15.19;64.23
65985;HTU21D;52748;51.112;5.880;2024-01-16T07:31:32;15.21;64.76
65985;HTU21D;52748;51.112;5.880;2024-01-16T07:33:58;15.23;65.14
65985;HTU21D;52748;51.112;5.880;2024-01-16T07:36:24;15.23;65.66
65985;HTU21D;52748;51.112;5.880;2024-01-16T07:38:50;15.22;66.04
65985;HTU21D;52748;51.112;5.880;2024-01-16T07:41:15;15.23;66.32
65985;HTU21D;52748;51.112;5.880;2024-01-16T07:43:41;15.23;66.66
65985;HTU21D;52748;51.112;5.880;2024-01-16T07:46:07;15.24;67.01
65985;HTU21D;52748;51.112;5.880;2024-01-16T07:48:33;15.24;67.27
65985;HTU21D;52748;51.112;5.880;2024-01-16T07:50:58;15.25;67.39
65985;HTU21D;52748;51.112;5.880;2024-01-16T07:53:24;15.26;67.55
65985;HTU21D;52748;51.112;5.880;2024-01-16T07:55:54;15.25;67.87
65985;HTU21D;52748;51.112;5.880;2024-01-16T07:58:20;15.26;68.06
65985;HTU21D;52748;51.112;5.880;2024-01-16T08:00:46;15.25;68.17
65985;HTU21D;52748;51.112;5.880;2024-01-16T08:03:12;15.26;68.30
65985;HTU21D;52748;51.112;5.880;2024-01-16T08:05:40;15.26;68.36
65985;HTU21D;52748;51.112;5.880;2024-01-16T08:08:08;15.26;68.52
65985;HTU21D;52748;51.112;5.880;2024-01-16T08:10:37;15.27;68.45
65985;HTU21D;52748;51.112;5.880;2024-01-16T08:13:03;15.25;68.37
65985;HTU21D;52748;51.112;5.880;2024-01-16T08:15:29;15.27;68.56
65985;HTU21D;52748;51.112;5.880;2024-01-16T08:17:55;15.27;68.71
65985;HTU21D;52748;51.112;5.880;2024-01-16T08:20:20;15.28;68.76
65985;HTU21D;52748;51.112;5.880;2024-01-16T08:22:46;15.27;68.94
65985;HTU21D;52748;51.112;5.880;2024-01-16T08:25:12;15.28;68.96
65985;HTU21D;52748;51.112;5.880;2024-01-16T08:27:38;15.28;69.00
65985;HTU21D;52748;51.112;5.880;2024-01-16T08:30:05;15.28;69.10
65985;HTU21D;52748;51.112;5.880;2024-01-16T08:32:31;15.29;69.15
65985;HTU21D;52748;51.112;5.880;2024-01-16T08:34:57;15.28;69.17
65985;HTU21D;52748;51.112;5.880;2024-01-16T08:37:23;15.29;69.19
65985;HTU21D;52748;51.112;5.880;2024-01-16T08:39:51;15.28;69.20
65985;HTU21D;52748;51.112;5.880;2024-01-16T08:42:17;15.29;69.23
65985;HTU21D;52748;51.112;5.880;2024-01-16T08:44:43;15.29;69.28
65985;HTU21D;52748;51.112;5.880;2024-01-16T08:47:09;15.29;69.30
65985;HTU21D;52748;51.112;5.880;2024-01-16T08:49:35;15.29;69.32
65985;HTU21D;52748;51.112;5.880;2024-01-16T08:52:01;15.29;69.37
65985;HTU21D;52748;51.112;5.880;2024-01-16T08:54:28;15.29;69.38
65985;HTU21D;52748;51.112;5.880;2024-01-16T08:56:54;15.29;69.37
65985;HTU21D;52748;51.112;5.880;2024-01-16T08:59:19;15.29;69.39
65985;HTU21D;52748;51.112;5.880;2024-01-16T09:01:45;15.29;69.39
65985;HTU21D;52748;51.112;5.880;2024-01-16T09:04:11;15.29;69.39
65985;HTU21D;52748;51.112;5.880;2024-01-16T09:06:37;15.29;69.40
65985;HTU21D;52748;51.112;5.880;2024-01-16T09:09:03;15.30;69.41
65985;HTU21D;52748;51.112;5.880;2024-01-16T09:11:30;15.30;69.49
65985;HTU21D;52748;51.112;5.880;2024-01-16T09:13:57;15.31;69.51
65985;HTU21D;52748;51.112;5.880;2024-01-16T09:16:23;15.29;69.49
65985;HTU21D;52748;51.112;5.880;2024-01-16T09:18:49;15.30;69.52
65985;HTU21D;52748;51.112;5.880;2024-01-16T09:21:15;15.30;69.55
65985;HTU21D;52748;51.112;5.880;2024-01-16T09:23:42;15.29;69.57
65985;HTU21D;52748;51.112;5.880;2024-01-16T09:26:07;15.31;69.60
65985;HTU21D;52748;51.112;5.880;2024-01-16T09:28:33;15.30;69.49
65985;HTU21D;52748;51.112;5.880;2024-01-16T09:30:59;15.30;69.47
65985;HTU21D;52748;51.112;5.880;2024-01-16T09:33:25;15.32;69.48
65985;HTU21D;52748;51.112;5.880;2024-01-16T09:35:51;15.32;69.48
65985;HTU21D;52748;51.112;5.880;2024-01-16T09:38:17;15.32;69.50
65985;HTU21D;52748;51.112;5.880;2024-01-16T09:40:43;15.33;69.61
65985;HTU21D;52748;51.112;5.880;2024-01-16T09:43:09;15.32;69.67
65985;HTU21D;52748;51.112;5.880;2024-01-16T09:45:40;15.33;69.68
65985;HTU21D;52748;51.112;5.880;2024-01-16T09:48:08;15.33;69.68
65985;HTU21D;52748;51.112;5.880;2024-01-16T09:50:34;15.34;69.71
65985;HTU21D;52748;51.112;5.880;2024-01-16T09:53:00;15.34;69.70
65985;HTU21D;52748;51.112;5.880;2024-01-16T09:55:26;15.33;69.71
65985;HTU21D;52748;51.112;5.880;2024-01-16T09:57:53;15.34;69.81
65985;HTU21D;52748;51.112;5.880;2024-01-16T10:00:19;15.34;69.78
65985;HTU21D;52748;51.112;5.880;2024-01-16T10:02:45;15.36;69.90
65985;HTU21D;52748;51.112;5.880;2024-01-16T10:05:13;15.36;69.91
65985;HTU21D;52748;51.112;5.880;2024-01-16T10:07:40;15.37;69.88
65985;HTU21D;52748;51.112;5.880;2024-01-16T10:10:09;15.34;69.90
65985;HTU21D;52748;51.112;5.880;2024-01-16T10:12:39;15.37;69.89
65985;HTU21D;52748;51.112;5.880;2024-01-16T10:15:06;15.36;69.78
65985;HTU21D;52748;51.112;5.880;2024-01-16T10:20:06;15.36;69.77
65985;HTU21D;52748;51.112;5.880;2024-01-16T10:22:32;15.36;69.90
65985;HTU21D;52748;51.112;5.880;2024-01-16T10:25:09;15.36;69.89
65985;HTU21D;52748;51.112;5.880;2024-01-16T10:27:39;15.36;69.90
65985;HTU21D;52748;51.112;5.880;2024-01-16T10:30:06;15.36;69.93
65985;HTU21D;52748;51.112;5.880;2024-01-16T10:32:40;15.34;69.97
65985;HTU21D;52748;51.112;5.880;2024-01-16T10:35:08;15.36;70.00
65985;HTU21D;52748;51.112;5.880;2024-01-16T10:37:52;15.36;70.07
65985;HTU21D;52748;51.112;5.880;2024-01-16T10:40:21;15.36;70.11
65985;HTU21D;52748;51.112;5.880;2024-01-16T10:43:07;15.36;70.19
65985;HTU21D;52748;51.112;5.880;2024-01-16T10:45:34;15.33;60.60
65985;HTU21D;52748;51.112;5.880;2024-01-16T10:48:07;15.25;53.73
65985;HTU21D;52748;51.112;5.880;2024-01-16T10:50:37;15.18;55.67
65985;HTU21D;52748;51.112;5.880;2024-01-16T10:53:07;15.13;58.70
65985;HTU21D;52748;51.112;5.880;2024-01-16T10:55:50;15.10;60.64
65985;HTU21D;52748;51.112;5.880;2024-01-16T10:58:22;15.11;62.38
65985;HTU21D;52748;51.112;5.880;2024-01-16T11:00:52;15.10;63.57
65985;HTU21D;52748;51.112;5.880;2024-01-16T11:03:25;15.10;64.37
65985;HTU21D;52748;51.112;5.880;2024-01-16T11:05:53;15.11;64.92
65985;HTU21D;52748;51.112;5.880;2024-01-16T11:08:23;15.12;65.36
65985;HTU21D;52748;51.112;5.880;2024-01-16T11:10:55;15.12;65.70
65985;HTU21D;52748;51.112;5.880;2024-01-16T11:13:22;15.13;65.92
65985;HTU21D;52748;51.112;5.880;2024-01-16T11:15:53;15.13;66.09
65985;HTU21D;52748;51.112;5.880;2024-01-16T11:18:20;15.15;66.27
65985;HTU21D;52748;51.112;5.880;2024-01-16T11:20:46;15.15;66.36
65985;HTU21D;52748;51.112;5.880;2024-01-16T11:23:13;15.16;66.47
65985;HTU21D;52748;51.112;5.880;2024-01-16T11:25:39;15.17;66.59
65985;HTU21D;52748;51.112;5.880;2024-01-16T11:28:28;15.16;66.72
65985;HTU21D;52748;51.112;5.880;2024-01-16T11:30:57;15.17;66.81
65985;HTU21D;52748;51.112;5.880;2024-01-16T11:35:59;15.19;67.04
65985;HTU21D;52748;51.112;5.880;2024-01-16T11:38:26;15.21;67.16
65985;HTU21D;52748;51.112;5.880;2024-01-16T11:41:01;15.19;67.21
65985;HTU21D;52748;51.112;5.880;2024-01-16T11:46:00;15.22;67.32
65985;HTU21D;52748;51.112;5.880;2024-01-16T11:48:27;15.19;67.46
65985;HTU21D;52748;51.112;5.880;2024-01-16T11:50:53;15.21;67.52
65985;HTU21D;52748;51.112;5.880;2024-01-16T11:53:38;15.22;67.51
65985;HTU21D;52748;51.112;5.880;2024-01-16T12:01:19;15.21;67.58
65985;HTU21D;52748;51.112;5.880;2024-01-16T12:04:05;15.21;67.62
65985;HTU21D;52748;51.112;5.880;2024-01-16T12:06:31;15.19;67.53
65985;HTU21D;52748;51.112;5.880;2024-01-16T12:09:13;15.19;67.54
65985;HTU21D;52748;51.112;5.880;2024-01-16T12:11:40;15.19;67.52
65985;HTU21D;52748;51.112;5.880;2024-01-16T12:14:09;15.19;67.64
65985;HTU21D;52748;51.112;5.880;2024-01-16T12:16:35;15.21;67.61
65985;HTU21D;52748;51.112;5.880;2024-01-16T12:19:08;15.19;67.70
65985;HTU21D;52748;51.112;5.880;2024-01-16T12:24:05;15.19;67.62
65985;HTU21D;52748;51.112;5.880;2024-01-16T12:26:32;15.19;67.68
65985;HTU21D;52748;51.112;5.880;2024-01-16T12:28:58;15.18;67.62
65985;HTU21D;52748;51.112;5.880;2024-01-16T12:31:26;15.18;67.60
65985;HTU21D;52748;51.112;5.880;2024-01-16T12:33:53;15.18;67.69
65985;HTU21D;52748;51.112;5.880;2024-01-16T12:36:18;15.17;67.69
65985;HTU21D;52748;51.112;5.880;2024-01-16T12:38:44;15.17;67.60
65985;HTU21D;52748;51.112;5.880;2024-01-16T12:41:11;15.18;67.63
65985;HTU21D;52748;51.112;5.880;2024-01-16T12:43:38;15.17;67.55
65985;HTU21D;52748;51.112;5.880;2024-01-16T12:46:04;15.16;67.62
65985;HTU21D;52748;51.112;5.880;2024-01-16T12:48:32;15.17;67.36
65985;HTU21D;52748;51.112;5.880;2024-01-16T12:51:02;15.17;67.34
65985;HTU21D;52748;51.112;5.880;2024-01-16T12:53:28;15.16;67.42
65985;HTU21D;52748;51.112;5.880;2024-01-16T12:55:59;15.15;67.52
65985;HTU21D;52748;51.112;5.880;2024-01-16T12:58:25;15.16;67.29
65985;HTU21D;52748;51.112;5.880;2024-01-16T13:00:57;15.15;67.23
65985;HTU21D;52748;51.112;5.880;2024-01-16T13:03:26;15.15;67.27
65985;HTU21D;52748;51.112;5.880;2024-01-16T13:05:57;15.15;67.20
65985;HTU21D;52748;51.112;5.880;2024-01-16T13:08:23;15.16;67.12
65985;HTU21D;52748;51.112;5.880;2024-01-16T13:11:07;15.16;67.17
65985;HTU21D;52748;51.112;5.880;2024-01-16T13:13:35;15.15;67.29
65985;HTU21D;52748;51.112;5.880;2024-01-16T13:16:03;15.14;67.36
65985;HTU21D;52748;51.112;5.880;2024-01-16T13:18:33;15.15;67.33
65985;HTU21D;52748;51.112;5.880;2024-01-16T13:21:00;15.14;67.38
65985;HTU21D;52748;51.112;5.880;2024-01-16T13:23:27;15.14;67.14
65985;HTU21D;52748;51.112;5.880;2024-01-16T13:25:55;15.14;66.40
65985;HTU21D;52748;51.112;5.880;2024-01-16T13:28:21;15.14;66.46
65985;HTU21D;52748;51.112;5.880;2024-01-16T13:30:48;15.14;66.66
65985;HTU21D;52748;51.112;5.880;2024-01-16T13:33:15;15.14;66.75
65985;HTU21D;52748;51.112;5.880;2024-01-16T13:35:44;15.14;66.77
65985;HTU21D;52748;51.112;5.880;2024-01-16T13:38:12;15.14;66.88
65985;HTU21D;52748;51.112;5.880;2024-01-16T13:40:38;15.13;66.42
65985;HTU21D;52748;51.112;5.880;2024-01-16T13:43:05;15.13;66.20
65985;HTU21D;52748;51.112;5.880;2024-01-16T13:45:33;15.13;66.27
65985;HTU21D;52748;51.112;5.880;2024-01-16T13:48:01;15.12;63.21
65985;HTU21D;52748;51.112;5.880;2024-01-16T13:50:28;15.11;63.95
65985;HTU21D;52748;51.112;5.880;2024-01-16T13:52:54;15.11;64.72
65985;HTU21D;52748;51.112;5.880;2024-01-16T13:55:20;15.10;65.12
65985;HTU21D;52748;51.112;5.880;2024-01-16T13:57:47;15.11;65.27
65985;HTU21D;52748;51.112;5.880;2024-01-16T14:00:14;15.10;65.59
65985;HTU21D;52748;51.112;5.880;2024-01-16T14:02:46;15.11;65.86
65985;HTU21D;52748;51.112;5.880;2024-01-16T14:05:17;15.11;65.88
65985;HTU21D;52748;51.112;5.880;2024-01-16T14:07:50;15.10;65.98
65985;HTU21D;52748;51.112;5.880;2024-01-16T14:10:18;15.11;66.29
65985;HTU21D;52748;51.112;5.880;2024-01-16T14:12:46;15.09;66.69
65985;HTU21D;52748;51.112;5.880;2024-01-16T14:15:15;15.10;66.89
65985;HTU21D;52748;51.112;5.880;2024-01-16T14:17:46;15.09;67.44
65985;HTU21D;52748;51.112;5.880;2024-01-16T14:20:14;15.10;67.94
65985;HTU21D;52748;51.112;5.880;2024-01-16T14:22:41;15.11;68.22
65985;HTU21D;52748;51.112;5.880;2024-01-16T14:25:11;15.11;68.38
65985;HTU21D;52748;51.112;5.880;2024-01-16T14:27:39;15.10;68.70
65985;HTU21D;52748;51.112;5.880;2024-01-16T14:30:13;15.10;68.93
65985;HTU21D;52748;51.112;5.880;2024-01-16T14:32:41;15.10;69.19
65985;HTU21D;52748;51.112;5.880;2024-01-16T14:35:09;15.10;69.39
65985;HTU21D;52748;51.112;5.880;2024-01-16T14:37:38;15.10;69.68
65985;HTU21D;52748;51.112;5.880;2024-01-16T14:40:05;15.10;69.84
65985;HTU21D;52748;51.112;5.880;2024-01-16T14:42:33;15.09;69.93
65985;HTU21D;52748;51.112;5.880;2024-01-16T14:45:00;15.10;70.06
65985;HTU21D;52748;51.112;5.880;2024-01-16T14:47:25;15.12;70.16
65985;HTU21D;52748;51.112;5.880;2024-01-16T14:49:51;15.12;70.19
65985;HTU21D;52748;51.112;5.880;2024-01-16T14:52:22;15.12;70.37
65985;HTU21D;52748;51.112;5.880;2024-01-16T14:54:48;15.12;70.42
65985;HTU21D;52748;51.112;5.880;2024-01-16T14:57:16;15.11;70.44
65985;HTU21D;52748;51.112;5.880;2024-01-16T14:59:42;15.12;70.50
65985;HTU21D;52748;51.112;5.880;2024-01-16T15:02:08;15.12;70.48
65985;HTU21D;52748;51.112;5.880;2024-01-16T15:04:42;15.14;70.48
65985;HTU21D;52748;51.112;5.880;2024-01-16T15:07:09;15.14;70.52
65985;HTU21D;52748;51.112;5.880;2024-01-16T15:09:35;15.14;70.54
65985;HTU21D;52748;51.112;5.880;2024-01-16T15:12:04;15.15;70.55
65985;HTU21D;52748;51.112;5.880;2024-01-16T15:14:32;15.14;70.58
65985;HTU21D;52748;51.112;5.880;2024-01-16T15:16:58;15.14;70.61
65985;HTU21D;52748;51.112;5.880;2024-01-16T15:19:24;15.15;70.63
65985;HTU21D;52748;51.112;5.880;2024-01-16T15:21:50;15.15;70.68
65985;HTU21D;52748;51.112;5.880;2024-01-16T15:24:17;15.15;70.74
65985;HTU21D;52748;51.112;5.880;2024-01-16T15:26:55;15.16;70.80
65985;HTU21D;52748;51.112;5.880;2024-01-16T15:29:25;15.16;70.84
65985;HTU21D;52748;51.112;5.880;2024-01-16T15:31:55;15.19;70.78